PWSweather.com
Personal Weather Stations
Station Observations
JOE4SPEED
Jupiter, Fl, Jupiter, FL 33458

Jupiter, FlJupiter, FL 33458

Lat: 26.9373, Lon: -80.1101

Elevation: 12

Station Type: Davis VP 2

http://www.joe4speed.com/wxindex.php

Latest ConditionsUpdated 11:00:00 PM EDT Sunday, May 29, 2016
Currently Today's Max Today's Min Today's Average
Temperature 78.9°F26.1°C 88.3°F31.3°C 73.4°F23.0°C 80.6°F27.0°C
Dew Point 72.6°F22.6°C 75.4°F24.1°C 70.7°F21.5°C 72.5°F22.5°C
Winds 2.3 mph W3.7 kmh W 6.9 mph ESE11.1 kmh ESE - 1.7 mph 2.7 kmh
Wind Gusts 4.6 mph7.4 kmh 9.2 mph14.8 kmh - -
Humidity 81% 93% 60% 77%
Pressure 30.04 in1017.3 mb 30.06 in1017.9 mb 29.99 in1015.6 mb -
Hour Temp Dew Point Humidity Winds Wind Gusts Pressure Precip Precip Rate Daily Precip Total
11:00 PM 78.9°F26.1°C 72.6°F22.6°C 81% 2.3 mph W3.7 kmh W 4.6 mph7.4 kmh 30.04 in1017.3 mb - 0.00 in0.0 mm 0.00 in0.0 mm
10:50 PM 79.0°F26.1°C 72.3°F22.4°C 80% Calm Calm -- 30.04 in1017.3 mb - 0.00 in0.0 mm 0.00 in0.0 mm
10:40 PM 79.2°F26.2°C 72.1°F22.3°C 79% Calm Calm -- 30.04 in1017.3 mb - 0.00 in0.0 mm 0.00 in0.0 mm
10:30 PM 79.5°F26.4°C 72.4°F22.4°C 79% Calm Calm -- 30.04 in1017.3 mb - 0.00 in0.0 mm 0.00 in0.0 mm
10:20 PM 79.8°F26.6°C 72.3°F22.4°C 78% Calm Calm -- 30.04 in1017.3 mb - 0.00 in0.0 mm 0.00 in0.0 mm
10:10 PM 79.8°F26.6°C 72.3°F22.4°C 78% 1.2 mph SE1.9 kmh SE 2.3 mph3.7 kmh 30.04 in1017.3 mb - 0.00 in0.0 mm 0.00 in0.0 mm
10:00 PM 80.0°F26.7°C 72.5°F22.5°C 78% Calm Calm -- 30.04 in1017.3 mb - 0.00 in0.0 mm 0.00 in0.0 mm
09:50 PM 80.2°F26.8°C 72.3°F22.4°C 77% Calm Calm -- 30.05 in1017.6 mb - 0.00 in0.0 mm 0.00 in0.0 mm
09:40 PM 80.3°F26.8°C 72.0°F22.2°C 76% Calm Calm -- 30.04 in1017.3 mb - 0.00 in0.0 mm 0.00 in0.0 mm
09:30 PM 80.4°F26.9°C 72.1°F22.3°C 76% 1.2 mph SE1.9 kmh SE 3.5 mph5.6 kmh 30.03 in1016.9 mb - 0.00 in0.0 mm 0.00 in0.0 mm
09:20 PM 80.5°F26.9°C 71.8°F22.1°C 75% Calm Calm 2.3 mph3.7 kmh 30.03 in1016.9 mb - 0.00 in0.0 mm 0.00 in0.0 mm
09:10 PM 80.5°F26.9°C 71.8°F22.1°C 75% 3.5 mph SE5.6 kmh SE 3.5 mph5.6 kmh 30.03 in1016.9 mb - 0.00 in0.0 mm 0.00 in0.0 mm
09:00 PM 80.6°F27.0°C 71.9°F22.2°C 75% Calm Calm -- 30.03 in1016.9 mb - 0.00 in0.0 mm 0.00 in0.0 mm
08:50 PM 80.7°F27.1°C 72.0°F22.2°C 75% Calm Calm 2.3 mph3.7 kmh 30.03 in1016.9 mb - 0.00 in0.0 mm 0.00 in0.0 mm
08:40 PM 81.0°F27.2°C 71.9°F22.2°C 74% Calm Calm -- 30.03 in1016.9 mb - 0.00 in0.0 mm 0.00 in0.0 mm
08:30 PM 81.1°F27.3°C 72.0°F22.2°C 74% Calm Calm -- 30.02 in1016.6 mb - 0.00 in0.0 mm 0.00 in0.0 mm
08:20 PM 81.2°F27.3°C 72.1°F22.3°C 74% 1.2 mph SE1.9 kmh SE 2.3 mph3.7 kmh 30.01 in1016.3 mb - 0.00 in0.0 mm 0.00 in0.0 mm
08:10 PM 81.4°F27.4°C 72.3°F22.4°C 74% 2.3 mph ESE3.7 kmh ESE 3.5 mph5.6 kmh 30.01 in1016.3 mb - 0.00 in0.0 mm 0.00 in0.0 mm
08:00 PM 81.6°F27.6°C 72.5°F22.5°C 74% 3.5 mph ESE5.6 kmh ESE 3.5 mph5.6 kmh 30.00 in1015.9 mb - 0.00 in0.0 mm 0.00 in0.0 mm
07:50 PM 82.0°F27.8°C 72.5°F22.5°C 73% 3.5 mph SE5.6 kmh SE 5.8 mph9.3 kmh 30.00 in1015.9 mb - 0.00 in0.0 mm 0.00 in0.0 mm
07:40 PM 82.3°F27.9°C 72.8°F22.7°C 73% 3.5 mph ESE5.6 kmh ESE 3.5 mph5.6 kmh 30.00 in1015.9 mb - 0.00 in0.0 mm 0.00 in0.0 mm
07:30 PM 82.9°F28.3°C 73.0°F22.8°C 72% 3.5 mph E5.6 kmh E 3.5 mph5.6 kmh 30.00 in1015.9 mb - 0.00 in0.0 mm 0.00 in0.0 mm
07:20 PM 83.2°F28.4°C 73.2°F22.9°C 72% 3.5 mph SE5.6 kmh SE 5.8 mph9.3 kmh 30.00 in1015.9 mb - 0.00 in0.0 mm 0.00 in0.0 mm
07:10 PM 83.5°F28.6°C 73.5°F23.1°C 72% 4.6 mph SE7.4 kmh SE 8.1 mph13.0 kmh 30.00 in1015.9 mb - 0.00 in0.0 mm 0.00 in0.0 mm
07:00 PM 83.6°F28.7°C 73.2°F22.9°C 71% 3.5 mph ESE5.6 kmh ESE 3.5 mph5.6 kmh 30.00 in1015.9 mb - 0.00 in0.0 mm 0.00 in0.0 mm
06:50 PM 83.9°F28.8°C 73.1°F22.8°C 70% 6.9 mph E11.1 kmh E 8.1 mph13.0 kmh 29.99 in1015.6 mb - 0.00 in0.0 mm 0.00 in0.0 mm
06:40 PM 84.0°F28.9°C 73.1°F22.8°C 70% 4.6 mph ESE7.4 kmh ESE 9.2 mph14.8 kmh 29.99 in1015.6 mb - 0.00 in0.0 mm 0.00 in0.0 mm
06:30 PM 84.0°F28.9°C 73.2°F22.9°C 70% 6.9 mph E11.1 kmh E 8.1 mph13.0 kmh 29.99 in1015.6 mb - 0.00 in0.0 mm 0.00 in0.0 mm
06:20 PM 84.9°F29.4°C 74.0°F23.3°C 70% 5.8 mph E9.3 kmh E 9.2 mph14.8 kmh 30.00 in1015.9 mb - 0.00 in0.0 mm 0.00 in0.0 mm
06:10 PM 85.2°F29.6°C 73.5°F23.1°C 68% 5.8 mph ESE9.3 kmh ESE 5.8 mph9.3 kmh 30.00 in1015.9 mb - 0.00 in0.0 mm 0.00 in0.0 mm
06:00 PM 85.4°F29.7°C 73.6°F23.1°C 68% 3.5 mph E5.6 kmh E 6.9 mph11.1 kmh 30.00 in1015.9 mb - 0.00 in0.0 mm 0.00 in0.0 mm
05:50 PM 85.3°F29.6°C 73.1°F22.8°C 67% 2.3 mph NE3.7 kmh NE 3.5 mph5.6 kmh 30.01 in1016.3 mb - 0.00 in0.0 mm 0.00 in0.0 mm
05:40 PM 85.8°F29.9°C 73.1°F22.8°C 66% 6.9 mph ESE11.1 kmh ESE 8.1 mph13.0 kmh 30.01 in1016.3 mb - 0.00 in0.0 mm 0.00 in0.0 mm
05:30 PM 85.7°F29.8°C 73.5°F23.1°C 67% 3.5 mph ESE5.6 kmh ESE 6.9 mph11.1 kmh 30.01 in1016.3 mb - 0.00 in0.0 mm 0.00 in0.0 mm
05:20 PM 85.3°F29.6°C 72.6°F22.6°C 66% 4.6 mph ENE7.4 kmh ENE 5.8 mph9.3 kmh 30.00 in1015.9 mb - 0.00 in0.0 mm 0.00 in0.0 mm
05:10 PM 85.4°F29.7°C 72.3°F22.4°C 65% 4.6 mph E7.4 kmh E 5.8 mph9.3 kmh 30.00 in1015.9 mb - 0.00 in0.0 mm 0.00 in0.0 mm
05:00 PM 85.5°F29.7°C 72.8°F22.7°C 66% 4.6 mph E7.4 kmh E 5.8 mph9.3 kmh 30.01 in1016.3 mb - 0.00 in0.0 mm 0.00 in0.0 mm
04:50 PM 84.9°F29.4°C 73.1°F22.8°C 68% 3.5 mph E5.6 kmh E 8.1 mph13.0 kmh 30.01 in1016.3 mb - 0.00 in0.0 mm 0.00 in0.0 mm
04:40 PM 84.4°F29.1°C 71.8°F22.1°C 66% 3.5 mph E5.6 kmh E 6.9 mph11.1 kmh 30.02 in1016.6 mb - 0.00 in0.0 mm 0.00 in0.0 mm
04:30 PM 84.6°F29.2°C 72.4°F22.4°C 67% 3.5 mph ENE5.6 kmh ENE 4.6 mph7.4 kmh 30.02 in1016.6 mb - 0.00 in0.0 mm 0.00 in0.0 mm
04:20 PM 85.0°F29.4°C 72.4°F22.4°C 66% 3.5 mph NE5.6 kmh NE 4.6 mph7.4 kmh 30.02 in1016.6 mb - 0.00 in0.0 mm 0.00 in0.0 mm
04:10 PM 84.8°F29.3°C 73.1°F22.8°C 68% 2.3 mph NE3.7 kmh NE 5.8 mph9.3 kmh 30.03 in1016.9 mb - 0.00 in0.0 mm 0.00 in0.0 mm
04:00 PM 84.5°F29.2°C 72.3°F22.4°C 67% 3.5 mph NE5.6 kmh NE 5.8 mph9.3 kmh 30.03 in1016.9 mb - 0.00 in0.0 mm 0.00 in0.0 mm
03:50 PM 84.9°F29.4°C 71.8°F22.1°C 65% 2.3 mph E3.7 kmh E 3.5 mph5.6 kmh 30.03 in1016.9 mb - 0.00 in0.0 mm 0.00 in0.0 mm
03:40 PM 85.5°F29.7°C 72.8°F22.7°C 66% 3.5 mph NE5.6 kmh NE 4.6 mph7.4 kmh 30.03 in1016.9 mb - 0.00 in0.0 mm 0.00 in0.0 mm
03:30 PM 85.4°F29.7°C 74.5°F23.6°C 70% 2.3 mph NE3.7 kmh NE 5.8 mph9.3 kmh 30.03 in1016.9 mb - 0.00 in0.0 mm 0.00 in0.0 mm
03:20 PM 85.5°F29.7°C 72.8°F22.7°C 66% 1.2 mph ENE1.9 kmh ENE 5.8 mph9.3 kmh 30.04 in1017.3 mb - 0.00 in0.0 mm 0.00 in0.0 mm
03:10 PM 86.4°F30.2°C 73.2°F22.9°C 65% 4.6 mph ENE7.4 kmh ENE 8.1 mph13.0 kmh 30.04 in1017.3 mb - 0.00 in0.0 mm 0.00 in0.0 mm
03:00 PM 86.6°F30.3°C 72.9°F22.7°C 64% 3.5 mph ENE5.6 kmh ENE 3.5 mph5.6 kmh 30.04 in1017.3 mb - 0.00 in0.0 mm 0.00 in0.0 mm
02:50 PM 86.8°F30.4°C 73.6°F23.1°C 65% 3.5 mph NE5.6 kmh NE 4.6 mph7.4 kmh 30.04 in1017.3 mb - 0.00 in0.0 mm 0.00 in0.0 mm
02:40 PM 87.2°F30.7°C 74.0°F23.3°C 65% 3.5 mph ENE5.6 kmh ENE 3.5 mph5.6 kmh 30.04 in1017.3 mb - 0.00 in0.0 mm 0.00 in0.0 mm
02:30 PM 87.8°F31.0°C 74.1°F23.4°C 64% 1.2 mph NE1.9 kmh NE 3.5 mph5.6 kmh 30.04 in1017.3 mb - 0.00 in0.0 mm 0.00 in0.0 mm
02:20 PM 86.5°F30.3°C 73.8°F23.2°C 66% 3.5 mph E5.6 kmh E 3.5 mph5.6 kmh 30.03 in1016.9 mb - 0.00 in0.0 mm 0.00 in0.0 mm
02:10 PM 86.5°F30.3°C 73.8°F23.2°C 66% 3.5 mph E5.6 kmh E 5.8 mph9.3 kmh 30.03 in1016.9 mb - 0.00 in0.0 mm 0.00 in0.0 mm
02:00 PM 84.9°F29.4°C 72.2°F22.3°C 66% 5.8 mph E9.3 kmh E 8.1 mph13.0 kmh 30.04 in1017.3 mb - 0.00 in0.0 mm 0.00 in0.0 mm
01:50 PM 85.6°F29.8°C 72.9°F22.7°C 66% 1.2 mph ESE1.9 kmh ESE 3.5 mph5.6 kmh 30.05 in1017.6 mb - 0.00 in0.0 mm 0.00 in0.0 mm
01:40 PM 86.2°F30.1°C 73.0°F22.8°C 65% 4.6 mph NE7.4 kmh NE 6.9 mph11.1 kmh 30.05 in1017.6 mb - 0.00 in0.0 mm 0.00 in0.0 mm
01:30 PM 87.4°F30.8°C 72.3°F22.4°C 61% 4.6 mph E7.4 kmh E 5.8 mph9.3 kmh 30.05 in1017.6 mb - 0.00 in0.0 mm 0.00 in0.0 mm
01:20 PM 87.6°F30.9°C 72.4°F22.4°C 61% 5.8 mph E9.3 kmh E 8.1 mph13.0 kmh 30.05 in1017.6 mb - 0.00 in0.0 mm 0.00 in0.0 mm
01:10 PM 88.3°F31.3°C 72.7°F22.6°C 60% 3.5 mph E5.6 kmh E 4.6 mph7.4 kmh 30.05 in1017.6 mb - 0.00 in0.0 mm 0.00 in0.0 mm
01:00 PM 87.8°F31.0°C 72.2°F22.3°C 60% 3.5 mph ESE5.6 kmh ESE 3.5 mph5.6 kmh 30.05 in1017.6 mb - 0.00 in0.0 mm 0.00 in0.0 mm
12:50 PM 88.2°F31.2°C 72.5°F22.5°C 60% 3.5 mph ESE5.6 kmh ESE 4.6 mph7.4 kmh 30.05 in1017.6 mb - 0.00 in0.0 mm 0.00 in0.0 mm
12:40 PM 87.3°F30.7°C 72.2°F22.3°C 61% 3.5 mph NE5.6 kmh NE 3.5 mph5.6 kmh 30.06 in1017.9 mb - 0.00 in0.0 mm 0.00 in0.0 mm
12:30 PM 87.3°F30.7°C 73.6°F23.1°C 64% 3.5 mph E5.6 kmh E 6.9 mph11.1 kmh 30.06 in1017.9 mb - 0.00 in0.0 mm 0.00 in0.0 mm
12:20 PM 87.8°F31.0°C 73.1°F22.8°C 62% 3.5 mph NE5.6 kmh NE 5.8 mph9.3 kmh 30.06 in1017.9 mb - 0.00 in0.0 mm 0.00 in0.0 mm
12:10 PM 87.5°F30.8°C 72.9°F22.7°C 62% 4.6 mph E7.4 kmh E 5.8 mph9.3 kmh 30.06 in1017.9 mb - 0.00 in0.0 mm 0.00 in0.0 mm
12:00 PM 87.4°F30.8°C 72.3°F22.4°C 61% 3.5 mph E5.6 kmh E 6.9 mph11.1 kmh 30.06 in1017.9 mb - 0.00 in0.0 mm 0.00 in0.0 mm
11:50 AM 87.0°F30.6°C 74.3°F23.5°C 66% 3.5 mph ENE5.6 kmh ENE 5.8 mph9.3 kmh 30.06 in1017.9 mb - 0.00 in0.0 mm 0.00 in0.0 mm
11:40 AM 87.0°F30.6°C 74.7°F23.7°C 67% 4.6 mph E7.4 kmh E 4.6 mph7.4 kmh 30.06 in1017.9 mb - 0.00 in0.0 mm 0.00 in0.0 mm
11:30 AM 87.0°F30.6°C 74.2°F23.4°C 66% 4.6 mph SE7.4 kmh SE 5.8 mph9.3 kmh 30.06 in1017.9 mb - 0.00 in0.0 mm 0.00 in0.0 mm
11:20 AM 86.3°F30.2°C 74.5°F23.6°C 68% Calm Calm 4.6 mph7.4 kmh 30.06 in1017.9 mb - 0.00 in0.0 mm 0.00 in0.0 mm
11:10 AM 86.8°F30.4°C 75.4°F24.1°C 69% 3.5 mph ENE5.6 kmh ENE 3.5 mph5.6 kmh 30.06 in1017.9 mb - 0.00 in0.0 mm 0.00 in0.0 mm
11:00 AM 86.4°F30.2°C 75.0°F23.9°C 69% 2.3 mph NE3.7 kmh NE 4.6 mph7.4 kmh 30.06 in1017.9 mb - 0.00 in0.0 mm 0.00 in0.0 mm
10:50 AM 85.4°F29.7°C 73.2°F22.9°C 67% 2.3 mph NW3.7 kmh NW 3.5 mph5.6 kmh 30.06 in1017.9 mb - 0.00 in0.0 mm 0.00 in0.0 mm
10:40 AM 86.0°F30.0°C 73.3°F22.9°C 66% Calm Calm 1.2 mph1.9 kmh 30.06 in1017.9 mb - 0.00 in0.0 mm 0.00 in0.0 mm
10:30 AM 86.6°F30.3°C 74.3°F23.5°C 67% 2.3 mph SE3.7 kmh SE 3.5 mph5.6 kmh 30.06 in1017.9 mb - 0.00 in0.0 mm 0.00 in0.0 mm
10:20 AM 85.8°F29.9°C 74.9°F23.8°C 70% Calm Calm -- 30.06 in1017.9 mb - 0.00 in0.0 mm 0.00 in0.0 mm
10:10 AM 84.9°F29.4°C 74.0°F23.3°C 70% 1.2 mph NE1.9 kmh NE -- 30.06 in1017.9 mb - 0.00 in0.0 mm 0.00 in0.0 mm
10:00 AM 83.9°F28.8°C 74.3°F23.5°C 73% 2.3 mph NE3.7 kmh NE 3.5 mph5.6 kmh 30.06 in1017.9 mb - 0.00 in0.0 mm 0.00 in0.0 mm
09:50 AM 83.0°F28.3°C 74.2°F23.4°C 75% 2.3 mph NE3.7 kmh NE 4.6 mph7.4 kmh 30.06 in1017.9 mb - 0.00 in0.0 mm 0.00 in0.0 mm
09:40 AM 82.3°F27.9°C 74.3°F23.5°C 77% 3.5 mph N5.6 kmh N 4.6 mph7.4 kmh 30.06 in1017.9 mb - 0.00 in0.0 mm 0.00 in0.0 mm
09:30 AM 81.3°F27.4°C 74.2°F23.4°C 79% 3.5 mph NW5.6 kmh NW 4.6 mph7.4 kmh 30.06 in1017.9 mb - 0.00 in0.0 mm 0.00 in0.0 mm
09:20 AM 80.3°F26.8°C 73.9°F23.3°C 81% Calm Calm -- 30.06 in1017.9 mb - 0.00 in0.0 mm 0.00 in0.0 mm
09:10 AM 80.1°F26.7°C 74.1°F23.4°C 82% Calm Calm -- 30.06 in1017.9 mb - 0.00 in0.0 mm 0.00 in0.0 mm
09:00 AM 79.5°F26.4°C 73.8°F23.2°C 83% Calm Calm -- 30.06 in1017.9 mb - 0.00 in0.0 mm 0.00 in0.0 mm
08:50 AM 78.8°F26.0°C 74.3°F23.5°C 86% 3.5 mph W5.6 kmh W 3.5 mph5.6 kmh 30.06 in1017.9 mb - 0.00 in0.0 mm 0.00 in0.0 mm
08:40 AM 78.0°F25.6°C 74.5°F23.6°C 89% Calm Calm -- 30.06 in1017.9 mb - 0.00 in0.0 mm 0.00 in0.0 mm
08:30 AM 77.2°F25.1°C 74.4°F23.6°C 91% 1.2 mph W1.9 kmh W 2.3 mph3.7 kmh 30.05 in1017.6 mb - 0.00 in0.0 mm 0.00 in0.0 mm
08:20 AM 76.4°F24.7°C 73.9°F23.3°C 92% Calm Calm -- 30.05 in1017.6 mb - 0.00 in0.0 mm 0.00 in0.0 mm
08:10 AM 75.9°F24.4°C 73.7°F23.2°C 93% 1.2 mph WSW1.9 kmh WSW 3.5 mph5.6 kmh 30.05 in1017.6 mb - 0.00 in0.0 mm 0.00 in0.0 mm
08:00 AM 75.4°F24.1°C 72.9°F22.7°C 92% Calm Calm -- 30.05 in1017.6 mb - 0.00 in0.0 mm 0.00 in0.0 mm
07:50 AM 74.9°F23.8°C 72.7°F22.6°C 93% Calm Calm -- 30.05 in1017.6 mb - 0.00 in0.0 mm 0.00 in0.0 mm
07:40 AM 74.8°F23.8°C 72.3°F22.4°C 92% Calm Calm -- 30.04 in1017.3 mb - 0.00 in0.0 mm 0.00 in0.0 mm
07:30 AM 74.3°F23.5°C 71.8°F22.1°C 92% Calm Calm -- 30.04 in1017.3 mb - 0.00 in0.0 mm 0.00 in0.0 mm
07:20 AM 74.1°F23.4°C 71.6°F22.0°C 92% Calm Calm -- 30.04 in1017.3 mb - 0.00 in0.0 mm 0.00 in0.0 mm
07:10 AM 73.7°F23.2°C 71.2°F21.8°C 92% Calm Calm -- 30.04 in1017.3 mb - 0.00 in0.0 mm 0.00 in0.0 mm
07:00 AM 73.5°F23.1°C 71.0°F21.7°C 92% Calm Calm -- 30.04 in1017.3 mb - 0.00 in0.0 mm 0.00 in0.0 mm
06:50 AM 73.4°F23.0°C 70.9°F21.6°C 92% Calm Calm -- 30.04 in1017.3 mb - 0.00 in0.0 mm 0.00 in0.0 mm
06:40 AM 73.4°F23.0°C 70.9°F21.6°C 92% Calm Calm -- 30.03 in1016.9 mb - 0.00 in0.0 mm 0.00 in0.0 mm
06:30 AM 73.5°F23.1°C 71.0°F21.7°C 92% Calm Calm -- 30.03 in1016.9 mb - 0.00 in0.0 mm 0.00 in0.0 mm
06:20 AM 73.6°F23.1°C 70.8°F21.6°C 91% Calm Calm -- 30.03 in1016.9 mb - 0.00 in0.0 mm 0.00 in0.0 mm
06:10 AM 73.7°F23.2°C 70.9°F21.6°C 91% Calm Calm -- 30.03 in1016.9 mb - 0.00 in0.0 mm 0.00 in0.0 mm
06:00 AM 73.9°F23.3°C 71.1°F21.7°C 91% Calm Calm -- 30.02 in1016.6 mb - 0.00 in0.0 mm 0.00 in0.0 mm
05:50 AM 73.9°F23.3°C 71.1°F21.7°C 91% Calm Calm -- 30.02 in1016.6 mb - 0.00 in0.0 mm 0.00 in0.0 mm
05:40 AM 73.8°F23.2°C 71.1°F21.7°C 91% Calm Calm -- 30.02 in1016.6 mb - 0.00 in0.0 mm 0.00 in0.0 mm
05:30 AM 74.0°F23.3°C 71.2°F21.8°C 91% Calm Calm -- 30.02 in1016.6 mb - 0.00 in0.0 mm 0.00 in0.0 mm
05:20 AM 73.9°F23.3°C 71.1°F21.7°C 91% Calm Calm -- 30.02 in1016.6 mb - 0.00 in0.0 mm 0.00 in0.0 mm
05:10 AM 73.8°F23.2°C 70.7°F21.5°C 90% Calm Calm -- 30.02 in1016.6 mb - 0.00 in0.0 mm 0.00 in0.0 mm
05:00 AM 73.8°F23.2°C 70.7°F21.5°C 90% Calm Calm -- 30.01 in1016.3 mb - 0.00 in0.0 mm 0.00 in0.0 mm
04:50 AM 74.0°F23.3°C 70.8°F21.6°C 90% Calm Calm -- 30.01 in1016.3 mb - 0.00 in0.0 mm 0.00 in0.0 mm
04:40 AM 74.1°F23.4°C 71.0°F21.7°C 90% Calm Calm -- 30.01 in1016.3 mb - 0.00 in0.0 mm 0.00 in0.0 mm
04:30 AM 74.1°F23.4°C 71.0°F21.7°C 90% Calm Calm -- 30.01 in1016.3 mb - 0.00 in0.0 mm 0.00 in0.0 mm
04:20 AM 74.2°F23.4°C 71.1°F21.7°C 90% Calm Calm -- 30.01 in1016.3 mb - 0.00 in0.0 mm 0.00 in0.0 mm
04:10 AM 74.2°F23.4°C 71.1°F21.7°C 90% Calm Calm -- 30.02 in1016.6 mb - 0.00 in0.0 mm 0.00 in0.0 mm
04:00 AM 74.2°F23.4°C 71.0°F21.7°C 90% Calm Calm -- 30.02 in1016.6 mb - 0.00 in0.0 mm 0.00 in0.0 mm
03:50 AM 74.2°F23.4°C 71.1°F21.7°C 90% Calm Calm -- 30.01 in1016.3 mb - 0.00 in0.0 mm 0.00 in0.0 mm
03:40 AM 74.2°F23.4°C 71.1°F21.7°C 90% Calm Calm -- 30.01 in1016.3 mb - 0.00 in0.0 mm 0.00 in0.0 mm
03:30 AM 74.3°F23.5°C 71.2°F21.8°C 90% Calm Calm -- 30.01 in1016.3 mb - 0.00 in0.0 mm 0.00 in0.0 mm
03:20 AM 74.3°F23.5°C 71.2°F21.8°C 90% Calm Calm -- 30.02 in1016.6 mb - 0.00 in0.0 mm 0.00 in0.0 mm
03:10 AM 74.4°F23.6°C 71.3°F21.8°C 90% Calm Calm -- 30.02 in1016.6 mb - 0.00 in0.0 mm 0.00 in0.0 mm
03:00 AM 74.4°F23.6°C 70.9°F21.6°C 89% Calm Calm -- 30.02 in1016.6 mb - 0.00 in0.0 mm 0.00 in0.0 mm
02:50 AM 74.4°F23.6°C 70.9°F21.6°C 89% Calm Calm -- 30.02 in1016.6 mb - 0.00 in0.0 mm 0.00 in0.0 mm
02:40 AM 74.6°F23.7°C 71.2°F21.8°C 89% Calm Calm -- 30.02 in1016.6 mb - 0.00 in0.0 mm 0.00 in0.0 mm
02:30 AM 74.8°F23.8°C 71.3°F21.8°C 89% Calm Calm -- 30.02 in1016.6 mb - 0.00 in0.0 mm 0.00 in0.0 mm
02:20 AM 75.0°F23.9°C 71.5°F21.9°C 89% Calm Calm -- 30.02 in1016.6 mb - 0.00 in0.0 mm 0.00 in0.0 mm
02:10 AM 75.1°F23.9°C 71.6°F22.0°C 89% Calm Calm -- 30.02 in1016.6 mb - 0.00 in0.0 mm 0.00 in0.0 mm
02:00 AM 75.2°F24.0°C 71.4°F21.9°C 88% Calm Calm -- 30.02 in1016.6 mb - 0.00 in0.0 mm 0.00 in0.0 mm
01:50 AM 75.3°F24.1°C 71.5°F21.9°C 88% Calm Calm -- 30.02 in1016.6 mb - 0.00 in0.0 mm 0.00 in0.0 mm
01:40 AM 75.4°F24.1°C 71.6°F22.0°C 88% Calm Calm -- 30.03 in1016.9 mb - 0.00 in0.0 mm 0.00 in0.0 mm
01:30 AM 75.4°F24.1°C 71.6°F22.0°C 88% Calm Calm -- 30.03 in1016.9 mb - 0.00 in0.0 mm 0.00 in0.0 mm
01:20 AM 75.6°F24.2°C 71.8°F22.1°C 88% Calm Calm -- 30.03 in1016.9 mb - 0.00 in0.0 mm 0.00 in0.0 mm
01:10 AM 75.7°F24.3°C 71.6°F22.0°C 87% Calm Calm -- 30.03 in1016.9 mb - 0.00 in0.0 mm 0.00 in0.0 mm
01:00 AM 75.8°F24.3°C 71.3°F21.8°C 86% Calm Calm -- 30.03 in1016.9 mb - 0.00 in0.0 mm 0.00 in0.0 mm
12:50 AM 76.0°F24.4°C 71.5°F21.9°C 86% Calm Calm -- 30.03 in1016.9 mb - 0.00 in0.0 mm 0.00 in0.0 mm
12:40 AM 76.1°F24.5°C 71.6°F22.0°C 86% Calm Calm -- 30.03 in1016.9 mb - 0.00 in0.0 mm 0.00 in0.0 mm
12:30 AM 76.3°F24.6°C 71.8°F22.1°C 86% Calm Calm -- 30.03 in1016.9 mb - 0.00 in0.0 mm 0.00 in0.0 mm
12:20 AM 76.5°F24.7°C 71.6°F22.0°C 85% Calm Calm -- 30.04 in1017.3 mb - 0.00 in0.0 mm 0.00 in0.0 mm
12:10 AM 76.6°F24.8°C 71.7°F22.1°C 85% Calm Calm -- 30.04 in1017.3 mb - 0.00 in0.0 mm 0.00 in0.0 mm
12:00 AM 76.8°F24.9°C 71.9°F22.2°C 85% Calm Calm -- 30.04 in1017.3 mb - 0.00 in0.0 mm 0.00 in0.0 mm